createdAt,value
2022-08-07T08:15:57.966Z,516.73
2022-08-07T08:22:02.995Z,450.90
2022-08-07T08:24:57.288Z,439.30
2022-08-07T08:27:44.043Z,435.87
2022-08-07T08:30:32.253Z,440.60
2022-08-07T08:33:15.219Z,437.13
2022-08-07T08:35:51.760Z,440.57
2022-08-07T08:38:29.380Z,435.87
2022-08-07T08:41:09.715Z,413.87
2022-08-07T08:43:58.982Z,414.23
2022-08-07T08:46:49.131Z,421.50
2022-08-07T08:49:32.674Z,425.30
2022-08-07T08:52:53.855Z,437.43
2022-08-07T08:55:54.371Z,441.63
2022-08-07T08:58:28.977Z,415.60
2022-08-07T09:01:18.498Z,420.20
2022-08-07T09:03:55.629Z,440.40
2022-08-07T09:06:51.005Z,453.97
2022-08-07T09:09:43.779Z,434.33
2022-08-07T09:12:40.689Z,440.47
2022-08-07T09:16:23.130Z,433.07
2022-08-07T09:18:53.182Z,446.17
2022-08-07T09:21:34.152Z,466.20
2022-08-07T09:24:58.994Z,450.80
2022-08-07T09:27:59.701Z,438.20
2022-08-07T09:30:48.169Z,436.27
2022-08-07T09:33:52.572Z,437.83
2022-08-07T09:36:37.369Z,434.37
2022-08-07T09:39:55.560Z,445.67
2022-08-07T09:42:53.875Z,414.97
2022-08-07T09:47:50.659Z,422.77
2022-08-07T09:50:02.026Z,442.20
2022-08-07T09:52:15.720Z,438.40
2022-08-07T09:55:17.326Z,439.33
2022-08-07T09:58:16.959Z,437.33
2022-08-07T10:01:08.512Z,447.50
2022-08-07T10:04:05.809Z,443.33
2022-08-07T10:07:25.835Z,433.33
2022-08-07T10:10:12.100Z,450.43
2022-08-07T10:13:11.035Z,436.03
2022-08-07T10:16:24.413Z,442.73
2022-08-07T10:19:30.127Z,447.87
2022-08-07T10:22:15.833Z,447.87
2022-08-07T10:25:08.404Z,444.67
2022-08-07T10:27:51.372Z,444.43
2022-08-07T10:30:30.314Z,454.03
2022-08-07T10:34:05.805Z,455.80
2022-08-07T10:36:41.869Z,456.63
2022-08-07T10:39:41.518Z,459.77
2022-08-07T10:42:48.026Z,444.67
2022-08-07T10:45:57.247Z,462.43
2022-08-07T10:48:41.185Z,468.80
2022-08-07T10:52:02.352Z,466.37
2022-08-07T10:54:38.183Z,468.37
2022-08-07T10:57:34.276Z,485.87
2022-08-07T11:00:36.172Z,486.13
2022-08-07T11:03:11.181Z,493.70
2022-08-07T11:05:58.511Z,477.93
2022-08-07T11:08:55.782Z,479.47
2022-08-07T11:11:35.766Z,478.40
2022-08-07T11:14:45.087Z,509.30
2022-08-07T11:17:10.722Z,503.87
2022-08-07T11:19:52.613Z,504.93
2022-08-07T11:22:44.117Z,521.70
2022-08-07T11:25:48.176Z,538.53
2022-08-07T11:28:28.235Z,531.60
2022-08-07T11:31:15.974Z,537.50
2022-08-07T11:34:00.769Z,528.83
2022-08-07T11:36:49.621Z,553.50
2022-08-07T11:40:00.674Z,542.80
2022-08-07T11:43:05.890Z,562.73
2022-08-07T11:46:17.070Z,554.83
2022-08-07T11:49:50.804Z,550.07
2022-08-07T11:51:50.610Z,568.17
2022-08-07T11:54:55.084Z,574.87
2022-08-07T11:57:59.791Z,562.37
2022-08-07T12:01:02.654Z,566.27
2022-08-07T12:03:47.641Z,572.63
2022-08-07T12:06:37.693Z,572.27
2022-08-07T12:09:23.345Z,573.57
2022-08-07T12:12:12.311Z,576.27
2022-08-07T12:15:01.175Z,585.33
2022-08-07T12:17:58.962Z,589.43
2022-08-07T12:20:42.417Z,590.47
2022-08-07T12:24:05.032Z,586.20
2022-08-07T12:26:30.861Z,591.43
2022-08-07T12:29:37.140Z,599.63
2022-08-07T12:32:23.475Z,601.73
2022-08-07T12:34:57.257Z,608.53
2022-08-07T12:38:09.450Z,614.13
2022-08-07T12:40:46.669Z,600.57
2022-08-07T12:44:01.533Z,615.53
2022-08-07T12:46:26.399Z,610.40
2022-08-07T12:49:44.188Z,607.47
2022-08-07T12:52:19.516Z,587.47
2022-08-07T12:55:09.748Z,584.87
2022-08-07T12:58:01.367Z,596.73
2022-08-07T13:00:50.442Z,604.07
2022-08-07T13:04:00.559Z,612.10
2022-08-07T13:07:01.075Z,625.77
2022-08-07T13:10:19.679Z,616.23
2022-08-07T13:13:46.762Z,640.97
2022-08-07T13:16:46.842Z,642.47
2022-08-07T13:19:50.519Z,644.83
2022-08-07T13:22:37.274Z,656.93
2022-08-07T13:25:28.841Z,675.83
2022-08-07T13:28:13.411Z,680.80
2022-08-07T13:31:01.519Z,675.27
2022-08-07T13:34:32.661Z,676.47
2022-08-07T13:36:51.958Z,656.13
2022-08-07T13:40:33.785Z,642.47
2022-08-07T13:42:24.898Z,619.63
2022-08-07T13:45:21.069Z,644.87
2022-08-07T13:48:05.879Z,647.70
2022-08-07T13:50:45.103Z,629.03
2022-08-07T13:53:59.719Z,614.23
2022-08-07T13:56:36.037Z,604.17
2022-08-07T13:59:24.463Z,609.20
2022-08-07T14:02:12.906Z,600.37
2022-08-07T14:05:02.439Z,598.27
2022-08-07T14:08:00.123Z,586.50
2022-08-07T14:10:41.969Z,594.33
2022-08-07T14:13:21.732Z,585.43
2022-08-07T14:16:12.392Z,581.77
2022-08-07T14:18:57.273Z,581.17
2022-08-07T14:22:03.526Z,573.10
2022-08-07T14:24:33.321Z,568.77
2022-08-07T14:30:06.394Z,545.87
2022-08-07T14:32:46.790Z,561.53
2022-08-07T14:35:44.898Z,541.20
2022-08-07T14:38:30.264Z,548.93
2022-08-07T14:41:12.319Z,534.47
2022-08-07T14:46:51.936Z,539.70
2022-08-07T14:49:57.418Z,549.40
2022-08-07T14:52:28.909Z,522.53
2022-08-07T14:55:02.481Z,540.57
2022-08-07T14:57:58.683Z,528.17
2022-08-07T15:00:31.298Z,537.07
2022-08-07T15:03:16.668Z,519.33
2022-08-07T15:05:55.354Z,525.07
2022-08-07T15:08:50.168Z,525.57
2022-08-07T15:11:54.285Z,503.87
2022-08-07T15:14:57.698Z,512.40
2022-08-07T15:17:54.575Z,506.40
2022-08-07T15:20:33.339Z,512.37
2022-08-07T15:25:14.181Z,499.97
2022-08-07T15:26:43.734Z,490.30
2022-08-07T15:30:06.419Z,489.47
2022-08-07T15:35:05.282Z,488.97
2022-08-07T15:40:35.270Z,479.30
2022-08-07T15:43:53.373Z,482.53
2022-08-07T15:46:31.857Z,476.17
2022-08-07T15:49:16.669Z,474.57
2022-08-07T15:54:34.541Z,473.47
2022-08-07T15:57:40.287Z,474.73
2022-08-07T16:00:04.441Z,485.37
2022-08-07T16:02:49.303Z,474.40
2022-08-07T16:05:23.068Z,484.77
2022-08-07T16:08:30.742Z,477.63
2022-08-07T16:10:52.043Z,486.87
2022-08-07T16:13:57.854Z,473.43
2022-08-07T16:16:47.965Z,496.00
2022-08-07T16:19:16.917Z,479.57
2022-08-07T16:22:19.443Z,500.20
2022-08-07T16:25:09.021Z,486.70
2022-08-07T16:29:18.640Z,493.20
2022-08-07T16:31:51.108Z,513.10
2022-08-07T16:34:23.619Z,466.17
2022-08-07T16:37:03.009Z,492.50
2022-08-07T16:40:28.623Z,532.30
2022-08-07T16:43:09.397Z,516.33
2022-08-07T16:46:33.542Z,517.83
2022-08-07T16:50:29.278Z,517.37
2022-08-07T16:52:50.817Z,475.80
2022-08-07T16:55:48.068Z,529.73
2022-08-07T16:58:27.485Z,528.90
2022-08-07T17:01:07.896Z,587.45
2022-08-07T17:03:59.854Z,538.27
2022-08-07T17:06:44.569Z,532.57
2022-08-07T17:10:05.448Z,509.87
2022-08-07T17:13:12.030Z,506.67
2022-08-07T17:15:50.802Z,423.47
2022-08-07T17:18:34.952Z,464.70
2022-08-07T17:21:19.034Z,499.63
2022-08-07T17:24:05.871Z,486.70
2022-08-07T17:27:05.370Z,512.60
2022-08-07T17:30:15.339Z,540.83
2022-08-07T17:34:08.545Z,528.93
2022-08-07T17:36:06.018Z,482.07
2022-08-07T17:39:10.572Z,529.60
2022-08-07T17:42:08.763Z,548.77
2022-08-07T17:44:50.587Z,461.53
2022-08-07T17:47:38.002Z,495.60
2022-08-07T17:50:19.977Z,554.30
2022-08-07T17:53:07.883Z,569.80
2022-08-07T17:56:26.179Z,472.43
2022-08-07T17:58:59.168Z,500.67
2022-08-07T18:02:04.675Z,553.10
2022-08-07T18:04:50.422Z,565.57
2022-08-07T18:07:38.201Z,551.57
2022-08-07T18:12:06.246Z,504.27
2022-08-07T18:14:03.698Z,491.10
2022-08-07T18:16:58.320Z,468.37
2022-08-07T18:21:02.973Z,471.30
2022-08-07T18:22:53.121Z,463.50
2022-08-07T18:25:40.307Z,454.97
2022-08-07T18:28:35.322Z,462.73
2022-08-07T18:31:26.788Z,465.67
2022-08-07T18:34:35.938Z,454.37
2022-08-07T18:38:55.411Z,455.10
2022-08-07T18:40:43.089Z,460.70
2022-08-07T18:43:51.045Z,467.80
2022-08-07T18:46:51.267Z,463.77
2022-08-07T18:50:30.760Z,478.07
2022-08-07T18:53:06.164Z,464.60
2022-08-07T18:56:00.264Z,461.30
2022-08-07T18:58:35.861Z,475.37
2022-08-07T19:02:18.291Z,478.87
2022-08-07T19:05:15.600Z,465.47
2022-08-07T19:08:14.816Z,477.47
2022-08-07T19:10:52.645Z,464.53
2022-08-07T19:13:27.754Z,466.27
2022-08-07T19:17:04.802Z,473.77
2022-08-07T19:19:33.934Z,468.70
2022-08-07T19:22:30.990Z,463.23
2022-08-07T19:25:05.659Z,460.00
2022-08-07T19:28:57.819Z,456.37
2022-08-07T19:31:05.964Z,456.17
2022-08-07T19:33:33.643Z,454.17
2022-08-07T19:36:08.733Z,456.87
2022-08-07T19:38:53.365Z,452.47
2022-08-07T19:41:39.230Z,454.67
2022-08-07T19:44:21.813Z,455.03
2022-08-07T19:46:58.021Z,454.03
2022-08-07T19:49:58.515Z,443.93
2022-08-07T19:52:23.691Z,428.70
2022-08-07T19:54:57.390Z,431.17
2022-08-07T19:58:00.290Z,441.37
2022-08-07T20:00:53.076Z,433.53
2022-08-07T20:03:33.929Z,437.63
2022-08-07T20:06:15.265Z,438.63
2022-08-07T20:08:50.378Z,435.60
2022-08-07T20:12:01.593Z,434.80
2022-08-07T20:14:31.233Z,418.80
2022-08-07T20:17:05.607Z,412.47
2022-08-07T20:19:49.465Z,441.23
2022-08-07T20:22:34.141Z,424.10
2022-08-07T20:25:19.287Z,422.17
2022-08-07T20:27:58.385Z,420.63
2022-08-07T20:30:37.269Z,430.50
2022-08-07T20:33:24.247Z,426.10
2022-08-07T20:36:03.799Z,428.60
2022-08-07T20:38:35.351Z,427.53
2022-08-07T20:41:37.821Z,429.67
2022-08-07T20:44:13.044Z,419.37
2022-08-07T20:46:46.815Z,427.03
2022-08-07T20:49:58.423Z,432.33
2022-08-07T20:52:30.093Z,415.90
2022-08-07T20:55:17.907Z,421.30
2022-08-07T20:58:02.671Z,420.03
2022-08-07T21:00:42.967Z,421.60
2022-08-07T21:03:19.248Z,425.80
2022-08-07T21:06:21.781Z,426.70
2022-08-07T21:09:13.620Z,424.80
2022-08-07T21:11:51.032Z,418.67
2022-08-07T21:14:34.204Z,421.13
2022-08-07T21:18:20.429Z,410.87
2022-08-07T21:20:19.078Z,412.67
2022-08-07T21:23:08.154Z,426.53
2022-08-07T21:26:11.022Z,424.80
2022-08-07T21:28:51.150Z,418.63
2022-08-07T21:31:49.501Z,416.40
2022-08-07T21:34:32.216Z,415.37
2022-08-07T21:37:09.073Z,426.07
2022-08-07T21:40:13.807Z,418.80
2022-08-07T21:42:46.814Z,419.10
2022-08-07T21:46:09.180Z,424.57
2022-08-07T21:49:00.437Z,413.73
2022-08-07T21:51:32.171Z,420.87
2022-08-07T21:54:14.277Z,418.57
2022-08-07T21:57:39.913Z,407.47
2022-08-07T22:00:22.202Z,414.40
2022-08-07T22:03:10.338Z,407.03
2022-08-07T22:05:55.633Z,400.97
2022-08-07T22:08:33.571Z,408.97
2022-08-07T22:11:08.425Z,400.33
2022-08-07T22:13:50.207Z,409.07
2022-08-07T22:16:46.168Z,418.97
2022-08-07T22:19:43.065Z,406.87
2022-08-07T22:22:20.858Z,399.70
2022-08-07T22:25:12.056Z,395.53
2022-08-07T22:28:07.727Z,408.90
2022-08-07T22:30:53.042Z,394.83
2022-08-07T22:33:53.617Z,402.60
2022-08-07T22:36:30.352Z,398.30
2022-08-07T22:39:25.932Z,405.90
2022-08-07T22:42:19.401Z,412.87
2022-08-07T22:44:58.402Z,403.97
2022-08-07T22:47:53.885Z,409.33
2022-08-07T22:50:35.914Z,403.73
2022-08-07T22:54:06.775Z,404.30
2022-08-07T22:56:57.317Z,392.03
2022-08-07T23:00:00.420Z,403.00
2022-08-07T23:03:04.507Z,404.20
2022-08-07T23:06:09.268Z,404.43
2022-08-07T23:10:06.250Z,385.67
2022-08-07T23:12:34.071Z,411.60
2022-08-07T23:15:21.881Z,394.63
2022-08-07T23:18:33.207Z,386.70
2022-08-07T23:21:23.127Z,386.37
2022-08-07T23:24:18.923Z,388.47
2022-08-07T23:26:55.081Z,379.53
2022-08-07T23:29:43.665Z,381.77
2022-08-07T23:34:21.451Z,387.63
2022-08-07T23:36:22.821Z,366.77
2022-08-07T23:39:09.702Z,371.07
2022-08-07T23:42:05.881Z,370.33
2022-08-07T23:45:33.293Z,368.77
2022-08-07T23:48:58.764Z,370.93
2022-08-07T23:53:00.785Z,371.73
2022-08-07T23:55:00.907Z,368.33
2022-08-07T23:57:42.745Z,363.50
